首页
METAR-TAF:

METAR-TAF

机场 :

帕倫克, 墨西哥

纬度: 17-32-06N, 经度: 92-00-54W, 海拔: 60米

当前天气观测

该预报发布于6小时和38分钟前的00:46 UTC
静风
温度 34°C
湿度 47%
气压 1003 hPa
能見度: 11.3公里
少量云层高于3000英尺

METAR: MMPQ 050046Z 00000KT 7SM FEW030 34/21 A2962 RMK 8/100 HZY

时间: 01:24 (07:24 UTC)

预报

该预报发布于2小时和20分钟前的05:04 UTC
预报有效从05日的 06点(UTC)到 06日的 06点(UTC)
风速5节,风向
能見度: 10公里
散云层高于3000英尺
从 05日的 1200点(UTC)
风速节,风向
能見度: 8.0公里
散云层高于1500英尺
短暂存在
从 05日的 12点(UTC)到 05日的 15点(UTC)
能見度: 4.8公里
多云层高于1500英尺
轻雾
从 05日的 1600点(UTC)
风速节,风向
能見度: 10公里
散云层高于3000英尺
从 05日的 2100点(UTC)
风速5节,风向北转东北
能見度: 9.7公里
散云层高于3000英尺
散云层高于8000英尺
从 06日的 0300点(UTC)
风速节,风向
能見度: 10公里
天空无云

TAF: MMPQ 050504Z 0506/0606 10005KT P6SM SCT030 FM051200 00000KT 5SM HZ SCT015 TEMPO 0512/0515 3SM BR BKN015 FM051600 00000KT P6SM SCT030 FM052100 02005KT 6SM HZ SCT030 SCT080 FM060300 00000KT P6SM SKC

超过4000个机场的气象观测和天气预报(METAR&TAF报告)。

可查询的气象台以黄色和红色小点在地图上表示。

将鼠标移到小点上方,可查看气象台名称。

然后点击查看天气观测和预报。

如需切换地图:点击带黑十字的绿色按钮放大地图;点击带横线的绿色按钮缩小地图;或者点击绿色箭头查看邻近地区的地图。


METAR-TAF: